Weather observations for the past three days for
Bismarck, Bismarck Municipal Airport
Metric (Imperial)
Date Time (cdt) Wind (kph) Vis. (km) Weather Sky Cond. Temperature (ºC) Relative Humidity Wind Chill (°C) Heat Index (°C) Pressure Precipitation (cm)
Air Dwpt 6 hour altimeter (cm) sea level (mb) 1 hr 3 hr 6 hr
Max. Min.
04 13:52 NW 37 G 57 16.09 Overcast and Breezy OVC065 10 -5 35% 6 75.62 1008.5
04 12:52 NW 35 G 59 16.09 Overcast and Breezy OVC060 8.9 -5 9.4 6.1 37% 5 75.62 1008.8
04 11:52 N 35 G 65 16.09 Mostly Cloudy and Breezy BKN055 8.9 -3.9 41% 5 75.62 1008.1
04 10:52 NW 41 G 61 16.09 Overcast and Breezy OVC050 7.2 -5 42% 3 75.62 1008.3
04 09:52 NW 43 G 63 16.09 Partly Cloudy and Windy SCT048 7.2 -3.9 46% 2 75.62 1008.3
04 08:52 NW 35 G 52 16.09 Fair and Breezy CLR 7.2 -3.3 48% 3 75.54 1007.4
04 07:52 NW 41 G 72 16.09 Fair and Breezy CLR 6.1 -3.3 51% 1 75.49 1006.4
04 06:52 NW 26 G 44 16.09 Fair CLR 7.2 -2.2 11.1 7.2 52% 4 75.39 1005.0
04 05:52 NW 33 G 54 16.09 A Few Clouds and Breezy FEW110 8.3 -2.8 46% 4 75.34 1004.2
04 04:52 NW 26 G 46 16.09 Mostly Cloudy BKN085 10 -1.7 44% 7 75.29 1003.3
04 03:52 NW 19 16.09 Fair CLR 10 2.2 59% 8 75.21 1002.5
04 02:52 W 9 16.09 Fair CLR 9.4 3.3 66% 8 75.13 1001.3
04 01:52 NW 9 16.09 Fair CLR 10.6 2.8 59% 75.13 1001.3
04 00:52 N 13 16.09 Fair CLR 11.1 2.8 23.3 11.1 57% 75.13 1001.6
03 23:52 NW 30 G 46 16.09 Mostly Cloudy BKN120 17.8 -1.1 28% 74.88 997.7
03 22:52 SW 20 16.09 Fair CLR 16.7 1.1 35% 74.85 997.8
03 21:52 SW 15 16.09 Fair CLR 16.7 1.1 35% 74.93 998.8
03 20:52 W 19 16.09 Fair CLR 20 0 26% 74.98 999.6
03 19:52 W 24 16.09 Fair CLR 22.8 -1.1 20% 75.03 1000.4
03 18:52 W 24 G 44 16.09 Fair CLR 23.3 -1.7 25 20.6 19% 75.13 1001.8
03 17:52 W 33 G 50 16.09 Fair and Breezy CLR 23.9 -2.8 17% 24 75.21 1002.8
03 15:52 W 37 G 50 16.09 Fair and Breezy CLR 23.9 -2.2 18% 24 75.39 1005.1
03 14:52 W 33 G 59 16.09 Fair and Breezy CLR 23.3 -2.2 18% 75.51 1006.5
03 13:52 W 22 G 44 16.09 Fair CLR 22.2 -1.1 21% 75.62 1007.8
03 12:52 W 35 G 52 16.09 Fair and Breezy CLR 21.1 -1.1 21.1 1.7 23% 75.74 1009.6
03 11:52 W 22 G 31 16.09 Fair CLR 18.9 -2.8 23% 75.84 1010.9
03 10:52 W 24 16.09 Fair CLR 17.8 -1.7 27% 75.9 1011.9
03 09:52 SW 9 16.09 Fair CLR 12.8 1.1 45% 75.95 1012.7
03 08:52 SW 7 16.09 Fair CLR 7.8 -1.1 54% 7 76 1013.7
03 07:52 Calm 16.09 Fair CLR 4.4 -1.7 65% 76.02 1014.1
03 06:52 Calm 16.09 Fair CLR 1.7 -2.2 12.2 1.1 76% 76.02 1014.0
03 05:52 SW 7 16.09 Fair CLR 2.8 -2.2 70% 1 76.02 1013.9
03 04:52 SW 7 16.09 Fair CLR 5 -1.7 62% 4 76.02 1013.9
03 03:52 W 9 16.09 Fair CLR 6.1 -1.1 60% 4 76.02 1013.5
03 02:52 NW 11 16.09 Fair CLR 8.9 -2.2 46% 7 76 1013.1
03 01:52 NW 17 16.09 Fair CLR 10.6 -1.7 43% 76 1013.1
03 00:52 N 24 G 37 16.09 Fair CLR 12.2 0 20 12.2 43% 75.95 1012.6
02 23:52 N 20 16.09 Fair CLR 13.9 2.2 45% 75.95 1012.2
02 22:52 NW 17 16.09 Partly Cloudy SCT100 13.9 2.8 47% 75.9 1012.0
02 21:52 NW 19 G 31 16.09 Fair CLR 16.1 2.2 39% 75.87 1011.6
02 20:52 NW 26 16.09 Mostly Cloudy BKN100 17.8 1.1 33% 75.82 1010.9
02 19:52 NW 30 G 44 16.09 Fair CLR 18.9 0.6 29% 75.77 1010.2
02 18:52 NW 39 G 57 16.09 Fair and Breezy CLR 20 0.6 23.3 20 27% 75.74 1010.0
02 17:52 N 35 G 63 16.09 Fair and Breezy CLR 21.7 -1.1 22% 75.72 1009.7
02 16:52 NW 35 G 52 16.09 Fair and Breezy CLR 22.2 -0.6 22% 75.72 1009.5
02 15:52 NW 37 G 56 16.09 Fair and Breezy CLR 23.3 0 21% 75.72 1009.3
02 14:52 NW 24 G 39 16.09 Fair CLR 22.8 1.1 24% 75.77 1010.0
02 13:52 NW 26 G 37 16.09 Fair CLR 21.7 0.6 25% 75.79 1010.7
02 12:52 W 13 16.09 Fair CLR 20 0.6 20 6.7 27% 75.82 1011.0
02 11:52 W 31 16.09 A Few Clouds FEW120 20 -0.6 25% 75.87 1011.9
02 10:52 SW 24 16.09 Mostly Cloudy BKN110 17.2 0 31% 75.92 1012.4
02 09:52 SW 31 G 46 16.09 Mostly Cloudy SCT100 BKN120 13.9 -1.7 34% 76 1013.4
02 08:52 SW 17 16.09 Mostly Cloudy BKN110 10.6 -1.7 43% 76.05 1014.4
02 07:52 SW 15 16.09 Mostly Cloudy BKN110 8.3 -2.2 48% 6 76.12 1015.3
02 06:52 SW 13 16.09 Fair CLR 6.7 -2.8 7.2 5 51% 4 76.17 1015.9
02 05:52 W 13 16.09 Fair CLR 6.1 -2.8 53% 4 76.2 1016.4
02 04:52 W 11 16.09 Fair CLR 6.1 -2.2 56% 4 76.2 1016.4
02 03:52 W 13 16.09 Fair CLR 7.2 -2.2 52% 5 76.23 1016.7
02 02:52 SW 11 16.09 Fair CLR 6.7 -2.2 53% 5 76.28 1017.3
02 01:52 SW 7 16.09 Fair CLR 6.7 -2.8 51% 6 76.3 1017.9
02 00:52 W 6 16.09 Fair CLR 6.1 -2.2 17.8 5 56% 76.33 1018.1
01 23:52 Calm 16.09 Fair CLR 6.1 -2.2 56% 76.35 1018.6
01 22:52 SW 7 16.09 Fair CLR 8.3 -2.2 48% 7 76.35 1018.8
01 21:52 SW 7 16.09 Fair CLR 11.7 -3.3 35% 76.35 1018.7
01 20:52 SW 9 16.09 Fair CLR 13.3 -3.3 32% 76.33 1018.6
01 19:52 SW 6 16.09 Fair CLR 16.1 -3.9 25% 76.33 1018.8
01 18:52 Calm 16.09 Overcast OVC085 17.8 -3.3 18.3 13.3 24% 76.35 1019.0
01 17:52 NW 15 16.09 A Few Clouds FEW090 16.1 -3.3 26% 76.35 1019.3
01 16:52 Vrbl 11 16.09 Overcast OVC085 16.7 -2.2 28% 76.4 1019.8
01 15:52 Vrbl 11 G 28 16.09 Partly Cloudy SCT085 17.2 -2.2 27% 76.43 1020.0
01 14:52 N 13 16.09 Mostly Cloudy BKN075 16.1 -2.2 29% 76.45 1020.3
Date Time (cdt) Wind (kph) Vis. (km) Weather Sky Cond. Air Dwpt Max. Min. Relative Humidity Wind Chill (°C) Heat Index (°C) altimeter (cm) sea level (mb) 1 hr 3 hr 6 hr
6 hour
Temperature (ºC) Pressure Precipitation (cm)